Time;durP1;ratioP1;P1;durP2;ratioP2;P2;SDS_P1;SDS_P2;PMS_P1;PMS_P2;Temp;Humidity;BMP_temperature;BMP_pressure;BME280_temperature;BME280_humidity;BME280_pressure;Samples;Min_cycle;Max_cycle;Signal;HPM_P1;HPM_P2
2021/09/08 00:00:15;;;;;;;10.35;6.88;;;23.00;56.00;;;;;;6198406;28;80341;-65
2021/09/08 00:03:16;;;;;;;10.65;6.75;;;23.00;55.90;;;;;;6182671;28;80672;-65
2021/09/08 00:06:16;;;;;;;8.18;5.57;;;23.00;56.00;;;;;;6197035;28;80594;-66
2021/09/08 00:09:17;;;;;;;10.20;6.55;;;23.00;56.00;;;;;;6174765;28;81441;-66
2021/09/08 00:12:17;;;;;;;9.95;6.03;;;23.00;55.90;;;;;;6181081;28;80444;-65
2021/09/08 00:15:18;;;;;;;9.63;6.65;;;23.00;55.90;;;;;;6197143;28;81483;-65
2021/09/08 00:18:18;;;;;;;10.32;6.75;;;23.00;56.10;;;;;;6183662;28;80490;-65
2021/09/08 00:21:19;;;;;;;11.82;6.53;;;23.00;55.90;;;;;;6178836;28;80644;-66
2021/09/08 00:24:19;;;;;;;8.63;5.97;;;23.00;55.80;;;;;;6185418;28;80469;-65
2021/09/08 00:27:20;;;;;;;8.05;6.15;;;23.00;56.00;;;;;;6183605;28;81484;-65
2021/09/08 00:30:20;;;;;;;9.13;6.07;;;23.00;56.00;;;;;;6193443;28;80401;-65
2021/09/08 00:33:23;;;;;;;11.85;6.68;;;23.00;55.90;;;;;;6193565;28;81568;-65
2021/09/08 00:36:24;;;;;;;8.57;5.93;;;23.00;56.10;;;;;;6171364;28;81733;-65
2021/09/08 00:39:25;;;;;;;9.43;6.38;;;23.00;56.00;;;;;;6182807;28;80552;-65
2021/09/08 00:42:27;;;;;;;9.68;6.07;;;23.00;56.00;;;;;;6174479;28;81538;-66
2021/09/08 00:45:27;;;;;;;11.55;6.90;;;23.00;56.00;;;;;;6151604;28;80371;-65
2021/09/08 00:48:29;;;;;;;9.00;6.18;;;22.90;55.90;;;;;;6183915;28;80562;-65
2021/09/08 00:51:30;;;;;;;10.45;6.82;;;23.00;56.00;;;;;;6190500;28;81812;-65
2021/09/08 00:54:31;;;;;;;9.45;5.70;;;22.90;55.90;;;;;;6183136;28;80349;-66
2021/09/08 00:57:33;;;;;;;11.73;6.45;;;23.00;56.00;;;;;;6182066;28;80526;-66
2021/09/08 01:00:34;;;;;;;8.52;6.07;;;22.90;55.80;;;;;;6181644;28;81038;-66
2021/09/08 01:03:37;;;;;;;9.27;6.13;;;23.00;56.10;;;;;;6182658;28;80447;-66
2021/09/08 01:06:40;;;;;;;8.77;5.82;;;22.90;55.90;;;;;;6191330;28;80801;-66
2021/09/08 01:09:41;;;;;;;8.88;6.22;;;22.90;55.80;;;;;;6187687;28;80208;-66
2021/09/08 01:12:42;;;;;;;9.07;6.05;;;22.90;55.90;;;;;;6177172;28;80919;-66
2021/09/08 01:15:43;;;;;;;9.55;5.90;;;22.90;55.80;;;;;;6176512;28;81330;-66
2021/09/08 01:18:43;;;;;;;10.57;7.10;;;23.00;56.10;;;;;;6182548;28;82128;-65
2021/09/08 01:21:43;;;;;;;13.15;7.00;;;22.90;56.00;;;;;;6183856;28;80415;-65
2021/09/08 01:24:44;;;;;;;10.65;6.22;;;22.90;56.00;;;;;;6171568;28;80322;-65
2021/09/08 01:27:46;;;;;;;10.63;6.45;;;22.90;56.10;;;;;;6185578;28;82885;-66
2021/09/08 01:30:46;;;;;;;10.25;6.22;;;22.90;55.80;;;;;;6194370;28;80998;-66
2021/09/08 01:33:47;;;;;;;8.27;5.93;;;22.90;55.90;;;;;;6179544;28;80912;-65
2021/09/08 01:36:47;;;;;;;9.15;5.88;;;22.90;55.90;;;;;;6181752;28;80347;-65
2021/09/08 01:39:48;;;;;;;11.50;6.30;;;22.90;55.80;;;;;;6190498;28;83427;-65
2021/09/08 01:42:48;;;;;;;8.63;5.70;;;22.90;56.00;;;;;;6182706;28;80509;-65
2021/09/08 01:45:49;;;;;;;10.82;6.30;;;22.90;55.90;;;;;;6191560;28;80615;-65
2021/09/08 01:48:49;;;;;;;7.63;5.22;;;22.90;55.70;;;;;;6186421;28;80248;-65
2021/09/08 01:51:50;;;;;;;8.75;6.07;;;22.90;56.00;;;;;;6190193;28;81325;-65
2021/09/08 01:54:50;;;;;;;10.85;6.20;;;22.90;55.90;;;;;;6160465;28;83387;-65
2021/09/08 01:57:51;;;;;;;8.88;6.18;;;22.90;56.00;;;;;;6157875;28;80163;-65
2021/09/08 02:00:51;;;;;;;9.95;6.35;;;22.90;56.00;;;;;;6165262;28;81143;-65
2021/09/08 02:03:52;;;;;;;8.23;5.75;;;22.90;55.80;;;;;;6174306;28;80531;-65
2021/09/08 02:06:52;;;;;;;9.32;5.93;;;22.90;55.90;;;;;;6195096;28;80518;-65
2021/09/08 02:09:52;;;;;;;9.07;5.80;;;22.90;56.00;;;;;;6190691;28;81827;-65
2021/09/08 02:12:53;;;;;;;8.70;5.95;;;22.90;55.90;;;;;;6189486;28;83013;-65
2021/09/08 02:15:53;;;;;;;13.60;6.30;;;22.90;56.00;;;;;;6182083;28;81592;-65
2021/09/08 02:18:54;;;;;;;7.57;5.93;;;22.90;55.80;;;;;;6179829;28;80490;-65
2021/09/08 02:21:54;;;;;;;8.35;5.57;;;22.90;55.90;;;;;;6184849;28;80584;-65
2021/09/08 02:24:55;;;;;;;10.27;6.70;;;22.90;55.80;;;;;;6184507;28;80661;-66
2021/09/08 02:27:55;;;;;;;9.23;5.93;;;22.90;55.90;;;;;;6184268;28;80367;-66
2021/09/08 02:30:56;;;;;;;9.18;6.22;;;22.90;56.00;;;;;;6190565;28;80444;-65
2021/09/08 02:33:57;;;;;;;7.80;6.03;;;22.90;55.60;;;;;;6204185;28;81259;-66
2021/09/08 02:36:57;;;;;;;9.27;5.38;;;22.80;56.00;;;;;;6187450;28;80660;-66
2021/09/08 02:39:58;;;;;;;7.18;5.15;;;22.90;55.80;;;;;;6195327;28;81594;-66
2021/09/08 02:42:58;;;;;;;8.30;6.03;;;22.90;56.00;;;;;;6188794;28;80964;-65
2021/09/08 02:46:01;;;;;;;7.32;5.53;;;22.90;55.80;;;;;;6200987;28;80542;-65
2021/09/08 02:49:02;;;;;;;8.65;5.72;;;22.80;55.80;;;;;;6188186;28;80743;-64
2021/09/08 02:52:03;;;;;;;11.32;6.30;;;22.90;55.80;;;;;;6182598;28;80618;-65
2021/09/08 02:55:03;;;;;;;7.70;5.93;;;22.80;55.80;;;;;;6175294;28;82733;-65
2021/09/08 02:58:04;;;;;;;9.10;5.85;;;22.90;55.70;;;;;;6186435;28;81871;-65
2021/09/08 03:01:04;;;;;;;9.43;6.18;;;22.80;55.70;;;;;;6190508;28;81230;-65
2021/09/08 03:04:04;;;;;;;10.43;5.88;;;22.90;55.80;;;;;;6197315;28;80606;-65
2021/09/08 03:07:05;;;;;;;13.63;6.68;;;22.80;55.60;;;;;;6191841;28;80928;-65
2021/09/08 03:10:06;;;;;;;8.40;5.75;;;22.80;55.50;;;;;;6179800;28;80494;-66
2021/09/08 03:13:06;;;;;;;8.68;5.72;;;22.80;55.50;;;;;;6167404;28;80762;-65
2021/09/08 03:16:06;;;;;;;11.10;6.15;;;22.80;55.60;;;;;;6165989;28;81626;-65
2021/09/08 03:19:07;;;;;;;8.93;6.25;;;22.80;55.70;;;;;;6183590;28;80375;-65
2021/09/08 03:22:07;;;;;;;7.95;5.90;;;22.80;55.60;;;;;;6190156;28;80683;-66
2021/09/08 03:25:08;;;;;;;7.85;5.78;;;22.80;55.50;;;;;;6191261;28;80878;-65
2021/09/08 03:28:08;;;;;;;9.18;5.97;;;22.80;55.60;;;;;;6184564;28;80360;-65
2021/09/08 03:31:09;;;;;;;10.27;7.03;;;22.80;55.60;;;;;;6189117;28;82767;-65
2021/09/08 03:34:09;;;;;;;10.80;6.35;;;22.80;55.30;;;;;;6193436;28;80358;-64
2021/09/08 03:37:10;;;;;;;11.40;6.97;;;22.80;55.50;;;;;;6179703;28;83513;-65
2021/09/08 03:40:10;;;;;;;16.25;8.75;;;22.80;55.50;;;;;;6187339;28;80283;-65
2021/09/08 03:43:11;;;;;;;14.05;7.85;;;22.80;55.40;;;;;;6183899;28;80739;-65
2021/09/08 03:46:11;;;;;;;10.80;7.15;;;22.80;55.50;;;;;;6183984;28;81000;-65
2021/09/08 03:49:12;;;;;;;14.65;8.13;;;22.80;55.30;;;;;;6183864;28;80403;-67
2021/09/08 03:52:12;;;;;;;15.90;8.30;;;22.80;55.30;;;;;;6183811;28;81197;-67
2021/09/08 03:55:13;;;;;;;16.23;8.55;;;22.80;55.30;;;;;;6185598;28;81817;-67
2021/09/08 03:58:13;;;;;;;15.93;8.57;;;22.80;55.20;;;;;;6191246;28;80468;-63
2021/09/08 04:01:14;;;;;;;17.73;7.85;;;22.80;54.90;;;;;;6185752;28;82383;-66
2021/09/08 04:04:14;;;;;;;11.52;7.97;;;22.80;55.20;;;;;;6173393;28;81433;-66
2021/09/08 04:07:18;;;;;;;15.88;8.02;;;22.80;55.30;;;;;;6182477;28;80246;-67
2021/09/08 04:10:19;;;;;;;12.88;7.38;;;22.80;55.30;;;;;;6190301;28;85714;-68
2021/09/08 04:13:19;;;;;;;14.18;8.15;;;22.80;55.30;;;;;;6188408;28;80494;-66
2021/09/08 04:16:20;;;;;;;14.98;8.45;;;22.80;56.10;;;;;;6183427;28;81647;-66
2021/09/08 04:19:20;;;;;;;17.08;8.95;;;22.80;56.60;;;;;;6184900;28;80225;-66
2021/09/08 04:22:21;;;;;;;17.13;9.40;;;22.80;56.90;;;;;;6184880;28;80295;-67
2021/09/08 04:25:21;;;;;;;17.85;9.50;;;22.80;59.50;;;;;;6168552;28;80648;-66
2021/09/08 04:28:22;;;;;;;17.58;8.40;;;22.80;60.80;;;;;;6174626;28;80405;-65
2021/09/08 04:31:22;;;;;;;15.48;9.18;;;22.80;59.50;;;;;;6183629;28;80557;-65
2021/09/08 04:34:23;;;;;;;14.90;8.10;;;22.80;59.90;;;;;;6185465;28;81327;-65
2021/09/08 04:37:23;;;;;;;15.07;8.48;;;22.80;59.00;;;;;;6177776;28;80387;-66
2021/09/08 04:40:23;;;;;;;14.77;8.02;;;22.90;58.80;;;;;;6191851;28;81807;-66
2021/09/08 04:43:24;;;;;;;17.23;8.75;;;22.90;59.10;;;;;;6190116;28;80516;-64
2021/09/08 04:46:25;;;;;;;13.80;8.00;;;22.90;58.70;;;;;;6183503;28;81191;-65
2021/09/08 04:49:25;;;;;;;12.57;8.13;;;22.80;59.00;;;;;;6173550;28;80664;-65
2021/09/08 04:52:25;;;;;;;13.35;7.63;;;22.90;58.90;;;;;;6178497;28;81075;-67
2021/09/08 04:55:26;;;;;;;15.13;8.38;;;22.90;58.50;;;;;;6178777;28;80649;-66
2021/09/08 04:58:26;;;;;;;13.90;8.45;;;22.90;58.60;;;;;;6182562;28;81249;-65
2021/09/08 05:01:27;;;;;;;16.20;8.52;;;22.90;58.50;;;;;;6182683;28;81587;-66
2021/09/08 05:04:27;;;;;;;13.02;8.02;;;22.90;58.70;;;;;;6174981;28;82003;-66
2021/09/08 05:07:28;;;;;;;12.80;7.47;;;22.90;58.90;;;;;;6153406;28;81430;-66
2021/09/08 05:10:28;;;;;;;15.88;8.05;;;22.90;58.80;;;;;;6177114;28;81231;-66
2021/09/08 05:13:29;;;;;;;12.85;7.45;;;22.90;58.80;;;;;;6196211;28;82300;-66
2021/09/08 05:16:29;;;;;;;20.50;8.77;;;23.00;58.90;;;;;;6179864;28;80692;-67
2021/09/08 05:19:30;;;;;;;13.50;8.48;;;23.00;58.70;;;;;;6180923;28;81407;-69
2021/09/08 05:22:30;;;;;;;15.43;8.98;;;22.90;58.90;;;;;;6169870;28;80605;-69
2021/09/08 05:25:31;;;;;;;16.10;8.93;;;22.90;58.50;;;;;;6182718;28;80584;-67
2021/09/08 05:28:31;;;;;;;14.65;9.10;;;23.00;58.40;;;;;;6181437;28;81884;-67
2021/09/08 05:31:32;;;;;;;17.48;9.43;;;23.00;58.20;;;;;;6177207;28;82028;-65
2021/09/08 05:34:32;;;;;;;20.98;9.95;;;23.00;57.60;;;;;;6179493;28;81678;-67
2021/09/08 05:37:33;;;;;;;23.35;9.88;;;23.00;58.00;;;;;;6180192;28;81302;-65
2021/09/08 05:40:33;;;;;;;23.48;10.80;;;22.90;57.80;;;;;;6185241;28;81617;-68
2021/09/08 05:43:33;;;;;;;22.65;10.55;;;23.00;57.40;;;;;;6172035;28;83265;-67
2021/09/08 05:46:34;;;;;;;21.90;10.32;;;23.00;57.50;;;;;;6177413;28;83675;-66
2021/09/08 05:49:34;;;;;;;17.67;10.93;;;23.00;57.10;;;;;;6174410;28;83131;-67
2021/09/08 05:52:35;;;;;;;21.02;10.68;;;23.00;56.80;;;;;;6168649;28;83618;-68
2021/09/08 05:55:35;;;;;;;17.38;11.27;;;23.00;56.60;;;;;;6168769;28;83362;-67
2021/09/08 05:58:36;;;;;;;21.73;11.27;;;23.00;56.30;;;;;;6172160;28;83559;-67
2021/09/08 06:01:36;;;;;;;19.90;12.52;;;23.00;56.70;;;;;;6168730;28;83488;-66
2021/09/08 06:04:37;;;;;;;27.88;12.18;;;23.00;56.40;;;;;;6163661;28;83307;-68
2021/09/08 06:07:37;;;;;;;23.33;11.25;;;23.00;56.20;;;;;;6171862;28;84190;-67
2021/09/08 06:10:38;;;;;;;18.95;11.43;;;23.00;56.30;;;;;;6175096;28;83420;-68
2021/09/08 06:13:38;;;;;;;22.02;11.30;;;23.00;56.30;;;;;;6182456;28;82992;-66
2021/09/08 06:16:39;;;;;;;21.13;12.00;;;23.00;56.10;;;;;;6177483;28;82899;-67
2021/09/08 06:19:40;;;;;;;20.67;12.02;;;23.00;56.30;;;;;;6166443;28;83000;-67
2021/09/08 06:22:40;;;;;;;27.00;11.90;;;23.00;56.30;;;;;;6177093;28;83456;-66
2021/09/08 06:25:41;;;;;;;21.67;10.77;;;23.00;55.90;;;;;;6177253;28;83040;-66
2021/09/08 06:28:41;;;;;;;20.45;11.27;;;23.00;56.20;;;;;;6171491;28;84367;-66
2021/09/08 06:31:42;;;;;;;23.55;12.02;;;22.90;56.40;;;;;;6181511;28;86411;-67
2021/09/08 06:34:46;;;;;;;23.10;12.38;;;22.90;56.60;;;;;;6174731;28;83126;-67
2021/09/08 06:37:47;;;;;;;18.58;11.98;;;22.90;56.30;;;;;;6177381;28;84271;-67
2021/09/08 06:40:47;;;;;;;23.42;12.43;;;22.90;56.70;;;;;;6177533;28;83552;-66
2021/09/08 06:43:49;;;;;;;20.92;11.57;;;22.90;56.20;;;;;;6163229;28;84252;-67
2021/09/08 06:46:50;;;;;;;22.30;12.23;;;22.90;56.40;;;;;;6166548;28;84383;-67
2021/09/08 06:49:51;;;;;;;21.25;13.00;;;22.90;56.20;;;;;;6167247;28;83002;-67
2021/09/08 06:52:51;;;;;;;24.80;12.52;;;22.90;56.40;;;;;;6180023;28;83218;-67
2021/09/08 06:55:52;;;;;;;22.33;12.85;;;22.90;56.50;;;;;;6184925;28;85191;-67
2021/09/08 06:58:52;;;;;;;23.27;12.07;;;22.90;56.50;;;;;;6179974;28;83641;-67
2021/09/08 07:01:53;;;;;;;20.52;12.35;;;22.90;56.60;;;;;;6166534;28;83537;-67
2021/09/08 07:04:53;;;;;;;27.13;13.32;;;22.90;56.60;;;;;;6178664;28;83186;-67
2021/09/08 07:07:54;;;;;;;24.33;11.70;;;22.90;56.50;;;;;;6173826;28;86067;-67
2021/09/08 07:10:54;;;;;;;23.25;12.77;;;23.00;56.50;;;;;;6181836;28;84016;-65
2021/09/08 07:13:55;;;;;;;20.10;11.75;;;22.90;56.80;;;;;;6181078;28;83498;-65
2021/09/08 07:16:55;;;;;;;27.10;11.90;;;23.00;56.60;;;;;;6178579;28;84217;-65
2021/09/08 07:19:56;;;;;;;23.60;12.70;;;23.00;57.40;;;;;;6179856;28;83523;-66
2021/09/08 07:22:56;;;;;;;24.13;12.25;;;23.10;56.60;;;;;;6184380;28;82951;-66
2021/09/08 07:25:57;;;;;;;20.85;11.95;;;23.00;56.50;;;;;;6179692;28;83146;-66
2021/09/08 07:28:57;;;;;;;19.90;12.82;;;23.00;56.60;;;;;;6178139;28;83153;-66
2021/09/08 07:31:58;;;;;;;19.20;11.68;;;23.00;56.50;;;;;;6182583;28;84021;-69
2021/09/08 07:34:59;;;;;;;22.40;11.73;;;23.10;56.50;;;;;;6185872;28;83296;-68
2021/09/08 07:38:00;;;;;;;21.63;11.25;;;23.10;56.40;;;;;;6196151;28;83613;-67
2021/09/08 07:41:00;;;;;;;21.60;11.90;;;23.10;56.50;;;;;;6181258;28;83247;-66
2021/09/08 07:44:01;;;;;;;20.30;11.90;;;23.10;56.50;;;;;;6180002;28;84550;-67
2021/09/08 07:47:01;;;;;;;20.88;12.27;;;23.10;56.80;;;;;;6175501;28;83751;-66
2021/09/08 07:50:02;;;;;;;20.65;11.88;;;23.20;56.80;;;;;;6178947;28;83209;-67
2021/09/08 07:53:08;;;;;;;24.92;12.30;;;23.20;56.70;;;;;;6175210;28;83257;-65
2021/09/08 07:56:09;;;;;;;20.65;11.52;;;23.20;57.00;;;;;;6184353;28;84110;-66
2021/09/08 07:59:09;;;;;;;20.00;10.82;;;23.20;57.30;;;;;;6178026;28;82924;-66
2021/09/08 08:02:10;;;;;;;19.05;11.23;;;23.20;57.20;;;;;;6179469;28;84905;-66
2021/09/08 08:05:10;;;;;;;20.35;10.60;;;23.20;57.30;;;;;;6178609;28;84177;-66
2021/09/08 08:08:11;;;;;;;19.17;11.45;;;23.20;57.20;;;;;;6168252;28;84196;-66
2021/09/08 08:11:11;;;;;;;16.13;10.40;;;23.20;57.50;;;;;;6178753;28;83849;-67
2021/09/08 08:14:13;;;;;;;18.45;10.18;;;23.20;57.20;;;;;;6179792;28;84437;-65
2021/09/08 08:17:14;;;;;;;19.83;10.30;;;23.20;57.40;;;;;;6173668;28;86313;-67
2021/09/08 08:20:14;;;;;;;16.17;10.82;;;23.20;57.30;;;;;;6178326;28;84386;-66
2021/09/08 08:23:15;;;;;;;17.45;10.60;;;23.20;57.40;;;;;;6179990;28;82939;-67
2021/09/08 08:26:18;;;;;;;20.17;11.07;;;23.20;57.30;;;;;;6179995;28;82951;-67
2021/09/08 08:29:18;;;;;;;17.20;11.27;;;23.10;57.70;;;;;;6179819;28;83226;-67
2021/09/08 08:32:19;;;;;;;20.45;10.52;;;23.20;57.60;;;;;;6181058;28;84279;-63
2021/09/08 08:35:19;;;;;;;17.45;10.40;;;23.20;57.60;;;;;;6177013;28;84279;-64
2021/09/08 08:38:20;;;;;;;18.38;10.55;;;23.20;57.60;;;;;;6182866;28;83063;-64
2021/09/08 08:41:22;;;;;;;18.70;9.80;;;23.20;57.70;;;;;;6178714;28;84613;-64
2021/09/08 08:44:23;;;;;;;20.80;11.23;;;23.20;57.70;;;;;;6179604;28;82992;-64
2021/09/08 08:47:23;;;;;;;21.75;10.93;;;23.20;58.00;;;;;;6180966;28;83307;-64
2021/09/08 08:50:26;;;;;;;17.48;10.93;;;23.20;58.20;;;;;;6171699;28;83357;-63
2021/09/08 08:53:26;;;;;;;19.83;10.70;;;23.30;58.20;;;;;;6174113;28;83021;-64
2021/09/08 08:56:27;;;;;;;17.73;10.00;;;23.30;58.90;;;;;;6174723;28;83178;-64
2021/09/08 08:59:27;;;;;;;20.48;11.10;;;23.30;57.90;;;;;;6177285;28;83431;-63
2021/09/08 09:02:28;;;;;;;16.98;10.27;;;23.30;58.30;;;;;;6174320;28;83140;-63
2021/09/08 09:05:28;;;;;;;17.42;9.48;;;23.30;58.50;;;;;;6176824;28;83678;-63
2021/09/08 09:08:29;;;;;;;13.60;9.15;;;23.30;58.60;;;;;;6179952;28;82995;-64
2021/09/08 09:11:29;;;;;;;16.90;10.10;;;23.30;58.50;;;;;;6182714;28;83057;-62
2021/09/08 09:14:30;;;;;;;14.80;9.85;;;23.30;59.10;;;;;;6174421;28;82818;-64
2021/09/08 09:17:30;;;;;;;19.83;10.50;;;23.30;58.80;;;;;;6181317;28;81695;-64
2021/09/08 09:20:32;;;;;;;15.55;9.73;;;23.40;59.40;;;;;;6172537;28;83019;-63
2021/09/08 09:23:33;;;;;;;13.77;9.73;;;23.40;58.70;;;;;;6186871;28;84286;-63
2021/09/08 09:26:33;;;;;;;20.90;10.80;;;23.40;58.40;;;;;;6187481;28;80499;-63
2021/09/08 09:29:34;;;;;;;18.67;10.77;;;23.40;58.40;;;;;;6181953;28;90488;-63
2021/09/08 09:32:34;;;;;;;16.30;10.07;;;23.40;58.30;;;;;;6184551;28;83219;-63
2021/09/08 09:35:35;;;;;;;16.02;10.23;;;23.50;58.20;;;;;;6178003;28;84101;-63
2021/09/08 09:38:35;;;;;;;25.10;10.18;;;23.50;58.00;;;;;;6168385;28;83197;-63
2021/09/08 09:41:36;;;;;;;13.77;8.82;;;23.40;58.20;;;;;;6150397;28;82941;-63
2021/09/08 09:44:36;;;;;;;17.92;9.85;;;23.40;57.90;;;;;;6174280;28;83051;-63
2021/09/08 09:47:38;;;;;;;17.55;9.52;;;23.50;57.90;;;;;;6178945;28;80666;-63
2021/09/08 09:50:39;;;;;;;15.80;10.02;;;23.50;57.90;;;;;;6180411;28;82353;-63
2021/09/08 09:53:39;;;;;;;18.58;9.95;;;23.50;57.90;;;;;;6166171;28;84984;-64
2021/09/08 09:56:40;;;;;;;17.77;10.75;;;23.50;57.60;;;;;;6180649;28;84526;-64
2021/09/08 09:59:41;;;;;;;13.43;9.30;;;23.50;57.60;;;;;;6176102;28;82785;-63
2021/09/08 10:02:42;;;;;;;15.30;9.85;;;23.50;57.50;;;;;;6181190;28;84236;-63
2021/09/08 10:05:43;;;;;;;20.50;10.10;;;23.60;57.80;;;;;;6184575;28;80668;-63
2021/09/08 10:08:43;;;;;;;13.68;9.02;;;23.60;57.30;;;;;;6175988;28;83036;-64
2021/09/08 10:11:44;;;;;;;17.00;9.80;;;23.70;57.30;;;;;;6175475;28;84544;-64
2021/09/08 10:14:45;;;;;;;16.23;10.23;;;23.70;57.20;;;;;;6179351;28;80651;-64
2021/09/08 10:17:45;;;;;;;13.82;9.15;;;23.70;57.40;;;;;;6176686;28;82817;-64
2021/09/08 10:20:46;;;;;;;13.20;8.98;;;23.70;57.10;;;;;;6181116;28;82928;-64
2021/09/08 10:23:47;;;;;;;15.30;9.85;;;23.70;56.90;;;;;;6173675;28;80653;-64
2021/09/08 10:26:48;;;;;;;15.50;9.50;;;23.70;55.60;;;;;;6181538;28;80619;-64
2021/09/08 10:29:48;;;;;;;15.45;9.05;;;23.80;55.30;;;;;;6199194;28;80731;-64
2021/09/08 10:32:49;;;;;;;19.77;9.98;;;23.80;56.30;;;;;;6183275;28;80802;-63
2021/09/08 10:35:49;;;;;;;19.30;8.85;;;23.80;55.80;;;;;;6179730;28;82917;-64
2021/09/08 10:38:50;;;;;;;14.45;9.07;;;23.80;55.80;;;;;;6185130;28;83773;-63
2021/09/08 10:41:50;;;;;;;14.25;10.38;;;23.70;56.00;;;;;;6202416;28;80583;-63
2021/09/08 10:44:51;;;;;;;15.48;9.77;;;23.80;56.10;;;;;;6182038;28;82958;-64
2021/09/08 10:47:52;;;;;;;13.40;8.73;;;23.90;56.10;;;;;;6187118;28;83059;-64
2021/09/08 10:50:52;;;;;;;14.15;9.82;;;23.90;56.60;;;;;;6181443;28;80192;-64
2021/09/08 10:53:53;;;;;;;13.27;9.48;;;23.90;55.90;;;;;;6188252;28;82638;-64
2021/09/08 10:56:53;;;;;;;13.70;8.45;;;23.80;56.10;;;;;;6175505;28;81506;-64
2021/09/08 10:59:53;;;;;;;14.30;9.25;;;23.90;56.30;;;;;;6181516;28;81392;-63
2021/09/08 11:02:54;;;;;;;15.30;10.18;;;23.90;56.10;;;;;;6175853;28;80939;-63
2021/09/08 11:05:55;;;;;;;14.35;9.48;;;23.90;56.10;;;;;;6180429;28;82964;-64
2021/09/08 11:08:56;;;;;;;14.43;9.52;;;23.90;56.20;;;;;;6185260;28;82928;-64
2021/09/08 11:11:57;;;;;;;13.13;8.55;;;23.90;56.30;;;;;;6179823;28;81710;-64
2021/09/08 11:14:57;;;;;;;14.68;9.07;;;23.90;56.10;;;;;;6176049;28;80647;-63
2021/09/08 11:17:58;;;;;;;13.95;9.88;;;23.90;56.20;;;;;;6177983;28;80390;-64
2021/09/08 11:20:58;;;;;;;13.38;8.52;;;23.90;55.90;;;;;;6182022;28;81861;-63
2021/09/08 11:23:59;;;;;;;13.15;9.48;;;24.00;55.90;;;;;;6174437;28;80974;-63
2021/09/08 11:26:59;;;;;;;15.85;9.40;;;24.00;55.70;;;;;;6170531;28;80762;-63
2021/09/08 11:30:00;;;;;;;14.18;10.05;;;24.00;55.60;;;;;;6171751;28;81409;-64
2021/09/08 11:33:00;;;;;;;15.75;9.82;;;23.90;55.00;;;;;;6172808;28;82961;-64
2021/09/08 11:36:01;;;;;;;14.50;9.10;;;23.90;54.90;;;;;;6173563;28;83145;-63
2021/09/08 11:39:01;;;;;;;18.00;9.23;;;23.90;54.60;;;;;;6166118;28;81064;-64
2021/09/08 11:42:03;;;;;;;13.13;9.20;;;23.90;54.40;;;;;;6187080;28;81551;-63
2021/09/08 11:45:04;;;;;;;10.38;8.20;;;24.00;53.40;;;;;;6180495;28;81470;-63
2021/09/08 11:48:04;;;;;;;13.40;8.20;;;24.20;49.00;;;;;;6191108;28;80674;-65
2021/09/08 11:51:05;;;;;;;12.30;8.35;;;24.40;47.30;;;;;;6187683;28;80679;-64
2021/09/08 11:54:07;;;;;;;14.40;8.48;;;24.50;47.20;;;;;;6191630;28;82951;-65
2021/09/08 11:57:12;;;;;;;13.07;9.30;;;24.50;48.60;;;;;;6186651;28;81204;-64
2021/09/08 12:00:13;;;;;;;16.10;9.38;;;24.50;49.30;;;;;;6177385;28;81876;-63
2021/09/08 12:03:13;;;;;;;15.68;9.27;;;24.50;50.30;;;;;;6179950;28;81816;-63
2021/09/08 12:06:14;;;;;;;14.82;9.18;;;24.50;50.50;;;;;;6178317;28;81045;-63
2021/09/08 12:09:14;;;;;;;16.73;9.52;;;24.50;51.40;;;;;;6179791;28;81788;-64
2021/09/08 12:12:15;;;;;;;15.73;9.40;;;24.50;51.60;;;;;;6196676;28;80693;-64
2021/09/08 12:15:15;;;;;;;16.45;9.43;;;24.60;51.00;;;;;;6186537;28;81604;-62
2021/09/08 12:18:16;;;;;;;19.40;9.85;;;24.60;51.50;;;;;;6183322;28;80704;-62
2021/09/08 12:21:17;;;;;;;13.18;9.18;;;24.50;51.30;;;;;;6176254;28;81477;-63
2021/09/08 12:24:18;;;;;;;15.73;8.57;;;24.50;51.80;;;;;;6180728;28;80228;-62
2021/09/08 12:27:18;;;;;;;14.10;9.38;;;24.50;51.50;;;;;;6176743;28;80733;-63
2021/09/08 12:30:19;;;;;;;16.27;10.38;;;24.40;50.70;;;;;;6177704;28;81433;-63
2021/09/08 12:33:19;;;;;;;13.05;9.38;;;24.30;50.60;;;;;;6182188;28;83060;-65
2021/09/08 12:36:19;;;;;;;15.30;9.40;;;24.40;50.80;;;;;;6188333;28;83032;-63
2021/09/08 12:39:20;;;;;;;14.75;10.10;;;24.30;50.10;;;;;;6198517;28;80620;-63
2021/09/08 12:42:20;;;;;;;15.55;10.60;;;24.20;50.20;;;;;;6190872;28;82861;-62
2021/09/08 12:45:21;;;;;;;13.80;9.02;;;24.20;50.30;;;;;;6196157;28;83169;-62
2021/09/08 12:48:21;;;;;;;14.48;9.65;;;24.20;50.00;;;;;;6183203;28;82885;-67
2021/09/08 12:51:22;;;;;;;18.13;10.30;;;24.20;50.30;;;;;;6185528;28;81382;-64
2021/09/08 12:54:22;;;;;;;13.13;9.35;;;24.20;50.30;;;;;;6182594;28;83085;-64
2021/09/08 12:57:23;;;;;;;13.20;9.45;;;24.10;50.00;;;;;;6188565;28;84122;-63
2021/09/08 13:00:23;;;;;;;11.38;8.38;;;24.20;50.40;;;;;;6177856;28;80262;-65
2021/09/08 13:03:24;;;;;;;12.43;8.75;;;24.30;50.10;;;;;;6176827;28;81030;-63
2021/09/08 13:06:24;;;;;;;13.07;9.07;;;24.40;50.00;;;;;;6187329;28;80454;-63
2021/09/08 13:09:25;;;;;;;12.50;8.82;;;24.50;49.50;;;;;;6200928;28;80473;-64
2021/09/08 13:12:25;;;;;;;11.68;8.43;;;24.60;48.60;;;;;;6177947;28;80571;-63
2021/09/08 13:15:26;;;;;;;15.60;9.35;;;24.60;49.00;;;;;;6180915;28;80699;-63
2021/09/08 13:18:26;;;;;;;16.02;9.27;;;24.50;48.60;;;;;;6181546;28;82305;-63
2021/09/08 13:21:27;;;;;;;13.48;8.68;;;24.50;49.40;;;;;;6171296;28;81088;-63
2021/09/08 13:24:28;;;;;;;15.05;9.55;;;24.50;49.70;;;;;;6181362;28;80645;-62
2021/09/08 13:27:28;;;;;;;16.15;8.73;;;24.60;49.50;;;;;;6179108;28;80533;-62
2021/09/08 13:30:29;;;;;;;13.68;9.25;;;24.60;49.50;;;;;;6198759;28;81515;-63
2021/09/08 13:33:29;;;;;;;13.82;9.40;;;24.70;48.60;;;;;;6178310;28;80434;-63
2021/09/08 13:36:30;;;;;;;15.25;9.32;;;24.80;47.80;;;;;;6180993;28;80514;-64
2021/09/08 13:39:31;;;;;;;11.55;8.45;;;24.80;47.20;;;;;;6175717;28;81315;-63
2021/09/08 13:42:31;;;;;;;15.50;8.90;;;24.70;47.70;;;;;;6177753;28;81116;-63
2021/09/08 13:45:32;;;;;;;13.75;9.38;;;24.70;48.10;;;;;;6183345;28;81944;-62
2021/09/08 13:48:32;;;;;;;12.77;8.68;;;24.70;48.30;;;;;;6182871;28;81405;-62
2021/09/08 13:51:33;;;;;;;13.57;8.27;;;24.80;48.50;;;;;;6181815;28;80327;-63
2021/09/08 13:54:34;;;;;;;11.80;9.27;;;24.70;48.00;;;;;;6183182;28;81335;-63
2021/09/08 13:57:35;;;;;;;12.52;8.73;;;24.70;48.30;;;;;;6179693;28;80162;-63
2021/09/08 14:00:35;;;;;;;13.60;9.48;;;24.70;48.60;;;;;;6181795;28;80515;-62
2021/09/08 14:03:35;;;;;;;13.57;9.13;;;24.70;49.00;;;;;;6183023;28;81986;-62
2021/09/08 14:06:36;;;;;;;12.30;8.70;;;24.60;49.20;;;;;;6184435;28;80423;-62
2021/09/08 14:09:36;;;;;;;12.27;8.13;;;24.60;49.20;;;;;;6188074;28;80971;-63
2021/09/08 14:12:37;;;;;;;15.75;9.20;;;24.60;49.60;;;;;;6198194;28;81261;-63
2021/09/08 14:15:38;;;;;;;11.90;9.10;;;24.50;50.10;;;;;;6189544;28;80799;-62
2021/09/08 14:18:38;;;;;;;13.65;9.13;;;24.50;49.90;;;;;;6198612;28;80382;-63
2021/09/08 14:21:38;;;;;;;16.27;10.48;;;24.40;49.70;;;;;;6198298;28;80832;-63
2021/09/08 14:24:39;;;;;;;15.40;9.32;;;24.40;49.80;;;;;;6194331;28;83257;-63
2021/09/08 14:27:40;;;;;;;12.50;8.63;;;24.40;50.10;;;;;;6175870;28;83731;-63
2021/09/08 14:30:40;;;;;;;13.43;10.05;;;24.30;50.00;;;;;;6191191;28;80522;-63
2021/09/08 14:33:41;;;;;;;10.90;8.35;;;24.40;50.00;;;;;;6177194;28;83890;-63
2021/09/08 14:36:41;;;;;;;12.93;9.07;;;24.40;49.70;;;;;;6187044;28;82999;-63
2021/09/08 14:39:41;;;;;;;12.40;9.00;;;24.50;49.00;;;;;;6186684;28;80849;-63
2021/09/08 14:42:42;;;;;;;18.02;9.60;;;24.50;49.30;;;;;;6202505;28;80696;-64
2021/09/08 14:45:42;;;;;;;18.75;8.88;;;24.50;49.60;;;;;;6194926;28;81342;-64
2021/09/08 14:48:43;;;;;;;12.95;8.93;;;24.50;49.80;;;;;;6196960;28;80693;-67
2021/09/08 14:51:43;;;;;;;11.85;9.05;;;24.50;49.20;;;;;;6179507;28;81222;-65
2021/09/08 14:54:44;;;;;;;12.13;9.15;;;24.40;49.60;;;;;;6179653;28;81293;-64
2021/09/08 14:57:44;;;;;;;16.55;10.38;;;24.30;50.40;;;;;;6186851;28;80583;-63
2021/09/08 15:00:45;;;;;;;13.13;8.88;;;24.30;50.70;;;;;;6185718;28;83045;-66
2021/09/08 15:03:46;;;;;;;15.32;9.95;;;24.30;51.00;;;;;;6180042;28;84492;-65
2021/09/08 15:06:49;;;;;;;16.13;9.93;;;24.40;51.20;;;;;;6182945;28;80909;-64
2021/09/08 15:09:50;;;;;;;15.15;9.20;;;24.30;51.20;;;;;;6181342;28;80894;-65
2021/09/08 15:12:50;;;;;;;12.48;8.63;;;24.30;51.20;;;;;;6180171;28;81182;-64
2021/09/08 15:15:51;;;;;;;13.65;9.05;;;24.30;51.40;;;;;;6170536;28;81819;-65
2021/09/08 15:18:51;;;;;;;12.95;8.77;;;24.30;52.10;;;;;;6163513;28;80295;-64
2021/09/08 15:21:54;;;;;;;13.85;9.98;;;24.30;51.80;;;;;;6160939;28;81659;-64
2021/09/08 15:24:54;;;;;;;14.40;9.95;;;24.30;51.90;;;;;;6176839;28;84544;-64